CYFT

Makkovik Airport

Makkovik, Canada
METAR CYFT 222000Z 31007KT 15SM BKN025 01/M08 A2977 RMK SC7 LAST OBS/NEXT230900 UTC SLP088
Observed Flight Rules
May-22 @ 20:00 UTC (13 hours ago) Marginal Visual Flight Rules
Wind Visibility Clouds
310° at 7 knots 15 miles
  • Broken at 2,500' AGL
Temperatures Readings
Current 1°C / 34°F
Dewpoint -8°C / 18°F
Humidity 51%
Altimeter 29.77" Hg
Pressure 1008.8 hPa
Elevation 71
METAR CYFT 222000Z 31007KT 15SM BKN025 01/M08 A2977 RMK SC7 LAST OBS/NEXT230900 UTC SLP088
Observed Flight Rules
May-22 @ 20:00 UTC
(13 hours ago)
MVFR
Wind Visibility
310° at 7 knots 15 miles
Clouds
  • Broken at 2,500' AGL
Temperature Dewpoint
1°C / 34°F -8°C / 18°F
Humidity Altimeter Pressure
51% 29.77" Hg 1008.8 hPa